sensor_id;sensor_type;location;lat;lon;timestamp;temperature;humidity
21811;DHT22;11067;48.788;9.208;2022-07-22T00:02:06;20.90;99.90
21811;DHT22;11067;48.788;9.208;2022-07-22T00:04:31;20.80;99.90
21811;DHT22;11067;48.788;9.208;2022-07-22T00:06:57;20.80;99.90
21811;DHT22;11067;48.788;9.208;2022-07-22T00:09:23;20.90;99.90
21811;DHT22;11067;48.788;9.208;2022-07-22T00:11:48;20.70;99.90
21811;DHT22;11067;48.788;9.208;2022-07-22T00:14:14;20.70;99.90
21811;DHT22;11067;48.788;9.208;2022-07-22T00:16:40;20.70;99.90
21811;DHT22;11067;48.788;9.208;2022-07-22T00:19:06;20.80;99.90
21811;DHT22;11067;48.788;9.208;2022-07-22T00:21:31;20.60;99.90
21811;DHT22;11067;48.788;9.208;2022-07-22T00:23:57;20.70;99.90
21811;DHT22;11067;48.788;9.208;2022-07-22T00:26:22;20.70;99.90
21811;DHT22;11067;48.788;9.208;2022-07-22T00:28:48;20.70;99.90
21811;DHT22;11067;48.788;9.208;2022-07-22T00:31:13;20.70;99.90
21811;DHT22;11067;48.788;9.208;2022-07-22T00:33:39;20.80;99.90
21811;DHT22;11067;48.788;9.208;2022-07-22T00:36:05;20.70;99.90
21811;DHT22;11067;48.788;9.208;2022-07-22T00:38:31;20.60;99.90
21811;DHT22;11067;48.788;9.208;2022-07-22T00:40:57;20.50;99.90
21811;DHT22;11067;48.788;9.208;2022-07-22T00:43:23;20.50;99.90
21811;DHT22;11067;48.788;9.208;2022-07-22T00:45:48;20.40;99.90
21811;DHT22;11067;48.788;9.208;2022-07-22T00:48:14;20.40;99.90
21811;DHT22;11067;48.788;9.208;2022-07-22T00:50:40;20.40;99.90
21811;DHT22;11067;48.788;9.208;2022-07-22T00:53:06;20.40;99.90
21811;DHT22;11067;48.788;9.208;2022-07-22T00:55:33;20.30;99.90
21811;DHT22;11067;48.788;9.208;2022-07-22T00:58:00;20.30;99.90
21811;DHT22;11067;48.788;9.208;2022-07-22T01:00:26;20.30;99.90
21811;DHT22;11067;48.788;9.208;2022-07-22T01:02:52;20.20;99.90
21811;DHT22;11067;48.788;9.208;2022-07-22T01:05:17;20.20;99.90
21811;DHT22;11067;48.788;9.208;2022-07-22T01:07:43;20.20;99.90
21811;DHT22;11067;48.788;9.208;2022-07-22T01:10:09;20.20;99.90
21811;DHT22;11067;48.788;9.208;2022-07-22T01:12:36;20.10;99.90
21811;DHT22;11067;48.788;9.208;2022-07-22T01:15:01;20.10;99.90
21811;DHT22;11067;48.788;9.208;2022-07-22T01:17:27;20.00;99.90
21811;DHT22;11067;48.788;9.208;2022-07-22T01:19:53;20.00;99.90
21811;DHT22;11067;48.788;9.208;2022-07-22T01:22:19;20.00;99.90
21811;DHT22;11067;48.788;9.208;2022-07-22T01:24:44;20.00;99.90
21811;DHT22;11067;48.788;9.208;2022-07-22T01:27:10;20.00;99.90
21811;DHT22;11067;48.788;9.208;2022-07-22T01:29:35;20.00;99.90
21811;DHT22;11067;48.788;9.208;2022-07-22T01:32:01;19.90;99.90
21811;DHT22;11067;48.788;9.208;2022-07-22T01:34:26;19.80;99.90
21811;DHT22;11067;48.788;9.208;2022-07-22T01:36:52;19.70;99.90
21811;DHT22;11067;48.788;9.208;2022-07-22T01:39:18;19.60;99.90
21811;DHT22;11067;48.788;9.208;2022-07-22T01:41:43;19.60;99.90
21811;DHT22;11067;48.788;9.208;2022-07-22T01:44:09;19.50;99.90
21811;DHT22;11067;48.788;9.208;2022-07-22T01:46:35;19.50;99.90
21811;DHT22;11067;48.788;9.208;2022-07-22T01:49:00;19.40;99.90
21811;DHT22;11067;48.788;9.208;2022-07-22T01:51:26;19.50;99.90
21811;DHT22;11067;48.788;9.208;2022-07-22T01:53:51;19.40;99.90
21811;DHT22;11067;48.788;9.208;2022-07-22T01:56:17;19.40;99.90
21811;DHT22;11067;48.788;9.208;2022-07-22T01:58:42;19.30;99.90
21811;DHT22;11067;48.788;9.208;2022-07-22T02:01:08;19.30;99.90
21811;DHT22;11067;48.788;9.208;2022-07-22T02:03:34;19.20;99.90
21811;DHT22;11067;48.788;9.208;2022-07-22T02:05:59;19.20;99.90
21811;DHT22;11067;48.788;9.208;2022-07-22T02:08:25;19.20;99.90
21811;DHT22;11067;48.788;9.208;2022-07-22T02:10:50;19.30;99.90
21811;DHT22;11067;48.788;9.208;2022-07-22T02:13:16;19.20;99.90
21811;DHT22;11067;48.788;9.208;2022-07-22T02:15:42;19.20;99.90
21811;DHT22;11067;48.788;9.208;2022-07-22T02:18:12;19.10;99.90
21811;DHT22;11067;48.788;9.208;2022-07-22T02:20:38;19.10;99.90
21811;DHT22;11067;48.788;9.208;2022-07-22T02:23:04;19.10;99.90
21811;DHT22;11067;48.788;9.208;2022-07-22T02:25:29;19.10;99.90
21811;DHT22;11067;48.788;9.208;2022-07-22T02:27:55;19.10;99.90
21811;DHT22;11067;48.788;9.208;2022-07-22T02:30:20;19.10;99.90
21811;DHT22;11067;48.788;9.208;2022-07-22T02:32:46;19.10;99.90
21811;DHT22;11067;48.788;9.208;2022-07-22T02:35:11;19.00;99.90
21811;DHT22;11067;48.788;9.208;2022-07-22T02:37:37;19.00;99.90
21811;DHT22;11067;48.788;9.208;2022-07-22T02:40:04;19.00;99.90
21811;DHT22;11067;48.788;9.208;2022-07-22T02:42:30;19.10;99.90
21811;DHT22;11067;48.788;9.208;2022-07-22T02:44:56;19.20;99.90
21811;DHT22;11067;48.788;9.208;2022-07-22T02:47:21;19.10;99.90
21811;DHT22;11067;48.788;9.208;2022-07-22T02:49:47;19.10;99.90
21811;DHT22;11067;48.788;9.208;2022-07-22T02:52:12;19.10;99.90
21811;DHT22;11067;48.788;9.208;2022-07-22T02:54:38;19.10;99.90
21811;DHT22;11067;48.788;9.208;2022-07-22T02:57:03;19.10;99.90
21811;DHT22;11067;48.788;9.208;2022-07-22T02:59:29;19.10;99.90
21811;DHT22;11067;48.788;9.208;2022-07-22T03:01:54;19.10;99.90
21811;DHT22;11067;48.788;9.208;2022-07-22T03:04:20;19.20;99.90
21811;DHT22;11067;48.788;9.208;2022-07-22T03:06:45;19.20;99.90
21811;DHT22;11067;48.788;9.208;2022-07-22T03:09:11;19.10;99.90
21811;DHT22;11067;48.788;9.208;2022-07-22T03:11:36;19.20;99.90
21811;DHT22;11067;48.788;9.208;2022-07-22T03:14:02;19.20;99.90
21811;DHT22;11067;48.788;9.208;2022-07-22T03:16:28;19.20;99.90
21811;DHT22;11067;48.788;9.208;2022-07-22T03:18:53;19.10;99.90
21811;DHT22;11067;48.788;9.208;2022-07-22T03:21:19;19.10;99.90
21811;DHT22;11067;48.788;9.208;2022-07-22T03:23:44;19.10;99.90
21811;DHT22;11067;48.788;9.208;2022-07-22T03:26:10;19.10;99.90
21811;DHT22;11067;48.788;9.208;2022-07-22T03:28:35;19.10;99.90
21811;DHT22;11067;48.788;9.208;2022-07-22T03:31:01;19.10;99.90
21811;DHT22;11067;48.788;9.208;2022-07-22T03:33:26;19.00;99.90
21811;DHT22;11067;48.788;9.208;2022-07-22T03:35:52;19.00;99.90
21811;DHT22;11067;48.788;9.208;2022-07-22T03:38:17;18.90;99.90
21811;DHT22;11067;48.788;9.208;2022-07-22T03:40:43;18.80;99.90
21811;DHT22;11067;48.788;9.208;2022-07-22T03:43:08;18.90;99.90
21811;DHT22;11067;48.788;9.208;2022-07-22T03:45:34;18.90;99.90
21811;DHT22;11067;48.788;9.208;2022-07-22T03:47:59;18.80;99.90
21811;DHT22;11067;48.788;9.208;2022-07-22T03:50:25;18.80;99.90
21811;DHT22;11067;48.788;9.208;2022-07-22T03:52:51;18.70;99.90
21811;DHT22;11067;48.788;9.208;2022-07-22T03:55:16;18.70;99.90
21811;DHT22;11067;48.788;9.208;2022-07-22T03:57:42;18.70;99.90
21811;DHT22;11067;48.788;9.208;2022-07-22T04:00:08;18.70;99.90
21811;DHT22;11067;48.788;9.208;2022-07-22T04:02:33;18.80;99.90
21811;DHT22;11067;48.788;9.208;2022-07-22T04:04:59;18.80;99.90
21811;DHT22;11067;48.788;9.208;2022-07-22T04:07:24;18.80;99.90
21811;DHT22;11067;48.788;9.208;2022-07-22T04:09:50;18.80;99.90
21811;DHT22;11067;48.788;9.208;2022-07-22T04:12:16;18.70;99.90
21811;DHT22;11067;48.788;9.208;2022-07-22T04:14:41;18.70;99.90
21811;DHT22;11067;48.788;9.208;2022-07-22T04:17:07;18.80;99.90
21811;DHT22;11067;48.788;9.208;2022-07-22T04:19:32;18.70;99.90
21811;DHT22;11067;48.788;9.208;2022-07-22T04:21:58;18.70;99.90
21811;DHT22;11067;48.788;9.208;2022-07-22T04:24:23;18.80;99.90
21811;DHT22;11067;48.788;9.208;2022-07-22T04:26:49;18.80;99.90
21811;DHT22;11067;48.788;9.208;2022-07-22T04:29:14;19.00;99.90
21811;DHT22;11067;48.788;9.208;2022-07-22T04:31:40;18.80;99.90
21811;DHT22;11067;48.788;9.208;2022-07-22T04:34:05;18.90;99.90
21811;DHT22;11067;48.788;9.208;2022-07-22T04:36:31;18.80;99.90
21811;DHT22;11067;48.788;9.208;2022-07-22T04:38:56;18.80;99.90
21811;DHT22;11067;48.788;9.208;2022-07-22T04:41:22;18.80;99.90
21811;DHT22;11067;48.788;9.208;2022-07-22T04:43:48;18.90;99.90
21811;DHT22;11067;48.788;9.208;2022-07-22T04:46:13;19.00;99.90
21811;DHT22;11067;48.788;9.208;2022-07-22T04:48:39;19.30;99.90
21811;DHT22;11067;48.788;9.208;2022-07-22T04:51:05;19.60;99.90
21811;DHT22;11067;48.788;9.208;2022-07-22T04:53:31;19.50;99.90
21811;DHT22;11067;48.788;9.208;2022-07-22T04:55:56;19.50;99.90
21811;DHT22;11067;48.788;9.208;2022-07-22T04:58:22;19.60;99.90
21811;DHT22;11067;48.788;9.208;2022-07-22T05:00:47;19.70;99.90
21811;DHT22;11067;48.788;9.208;2022-07-22T05:03:13;20.20;99.90
21811;DHT22;11067;48.788;9.208;2022-07-22T05:05:39;20.30;99.90
21811;DHT22;11067;48.788;9.208;2022-07-22T05:08:05;21.10;99.90
21811;DHT22;11067;48.788;9.208;2022-07-22T05:10:30;20.60;99.90
21811;DHT22;11067;48.788;9.208;2022-07-22T05:12:57;20.60;99.90
21811;DHT22;11067;48.788;9.208;2022-07-22T05:15:22;20.50;99.90
21811;DHT22;11067;48.788;9.208;2022-07-22T05:17:48;20.30;99.90
21811;DHT22;11067;48.788;9.208;2022-07-22T05:20:13;20.30;99.90
21811;DHT22;11067;48.788;9.208;2022-07-22T05:22:39;20.50;99.90
21811;DHT22;11067;48.788;9.208;2022-07-22T05:25:05;20.40;99.90
21811;DHT22;11067;48.788;9.208;2022-07-22T05:27:30;21.10;99.90
21811;DHT22;11067;48.788;9.208;2022-07-22T05:29:56;21.00;99.90
21811;DHT22;11067;48.788;9.208;2022-07-22T05:32:22;21.20;99.90
21811;DHT22;11067;48.788;9.208;2022-07-22T05:34:47;21.80;99.90
21811;DHT22;11067;48.788;9.208;2022-07-22T05:37:13;21.80;99.90
21811;DHT22;11067;48.788;9.208;2022-07-22T05:39:39;21.50;99.90
21811;DHT22;11067;48.788;9.208;2022-07-22T05:42:05;21.90;99.90
21811;DHT22;11067;48.788;9.208;2022-07-22T05:44:30;22.30;99.90
21811;DHT22;11067;48.788;9.208;2022-07-22T05:46:56;22.10;99.90
21811;DHT22;11067;48.788;9.208;2022-07-22T05:49:21;22.70;99.90
21811;DHT22;11067;48.788;9.208;2022-07-22T05:51:47;22.40;99.90
21811;DHT22;11067;48.788;9.208;2022-07-22T05:54:13;21.50;99.90
21811;DHT22;11067;48.788;9.208;2022-07-22T05:56:38;21.50;99.90
21811;DHT22;11067;48.788;9.208;2022-07-22T05:59:04;21.90;99.90
21811;DHT22;11067;48.788;9.208;2022-07-22T06:01:29;22.60;99.90
21811;DHT22;11067;48.788;9.208;2022-07-22T06:03:55;22.80;99.90
21811;DHT22;11067;48.788;9.208;2022-07-22T06:06:20;22.80;99.90
21811;DHT22;11067;48.788;9.208;2022-07-22T06:08:46;23.00;99.90
21811;DHT22;11067;48.788;9.208;2022-07-22T06:11:12;22.70;99.90
21811;DHT22;11067;48.788;9.208;2022-07-22T06:13:37;22.20;99.90
21811;DHT22;11067;48.788;9.208;2022-07-22T06:16:03;22.80;99.90
21811;DHT22;11067;48.788;9.208;2022-07-22T06:18:29;23.00;99.90
21811;DHT22;11067;48.788;9.208;2022-07-22T06:20:55;22.50;99.90
21811;DHT22;11067;48.788;9.208;2022-07-22T06:23:22;23.30;99.90
21811;DHT22;11067;48.788;9.208;2022-07-22T06:25:48;23.40;99.90
21811;DHT22;11067;48.788;9.208;2022-07-22T06:28:13;23.80;99.90
21811;DHT22;11067;48.788;9.208;2022-07-22T06:30:39;23.50;99.90
21811;DHT22;11067;48.788;9.208;2022-07-22T06:33:04;23.40;99.90
21811;DHT22;11067;48.788;9.208;2022-07-22T06:35:30;22.60;99.90
21811;DHT22;11067;48.788;9.208;2022-07-22T06:37:55;22.70;99.90
21811;DHT22;11067;48.788;9.208;2022-07-22T06:40:21;23.40;99.90
21811;DHT22;11067;48.788;9.208;2022-07-22T06:42:46;23.80;99.90
21811;DHT22;11067;48.788;9.208;2022-07-22T06:45:12;23.90;99.90
21811;DHT22;11067;48.788;9.208;2022-07-22T06:47:38;24.00;99.90
21811;DHT22;11067;48.788;9.208;2022-07-22T06:50:05;24.30;99.90
21811;DHT22;11067;48.788;9.208;2022-07-22T06:52:31;24.40;99.90
21811;DHT22;11067;48.788;9.208;2022-07-22T06:54:57;24.40;99.90
21811;DHT22;11067;48.788;9.208;2022-07-22T06:57:22;25.00;99.90
21811;DHT22;11067;48.788;9.208;2022-07-22T06:59:48;25.00;99.90
21811;DHT22;11067;48.788;9.208;2022-07-22T07:02:14;25.40;99.90
21811;DHT22;11067;48.788;9.208;2022-07-22T07:04:39;24.70;99.90
21811;DHT22;11067;48.788;9.208;2022-07-22T07:07:05;24.70;99.90
21811;DHT22;11067;48.788;9.208;2022-07-22T07:09:31;24.50;99.90
21811;DHT22;11067;48.788;9.208;2022-07-22T07:11:56;24.30;99.90
21811;DHT22;11067;48.788;9.208;2022-07-22T07:14:22;24.70;99.90
21811;DHT22;11067;48.788;9.208;2022-07-22T07:16:47;24.80;99.90
21811;DHT22;11067;48.788;9.208;2022-07-22T07:19:13;24.10;99.90
21811;DHT22;11067;48.788;9.208;2022-07-22T07:21:38;23.30;99.90
21811;DHT22;11067;48.788;9.208;2022-07-22T07:24:04;23.50;99.90
21811;DHT22;11067;48.788;9.208;2022-07-22T07:26:30;23.50;99.90
21811;DHT22;11067;48.788;9.208;2022-07-22T07:28:56;23.40;99.90
21811;DHT22;11067;48.788;9.208;2022-07-22T07:31:21;23.30;99.90
21811;DHT22;11067;48.788;9.208;2022-07-22T07:33:47;23.40;99.90
21811;DHT22;11067;48.788;9.208;2022-07-22T07:36:13;23.30;99.90
21811;DHT22;11067;48.788;9.208;2022-07-22T07:38:39;23.00;99.90
21811;DHT22;11067;48.788;9.208;2022-07-22T07:41:05;23.20;99.90
21811;DHT22;11067;48.788;9.208;2022-07-22T07:43:30;23.50;99.90
21811;DHT22;11067;48.788;9.208;2022-07-22T07:45:56;23.40;99.90
21811;DHT22;11067;48.788;9.208;2022-07-22T07:48:21;23.60;99.90
21811;DHT22;11067;48.788;9.208;2022-07-22T07:50:47;23.80;99.90
21811;DHT22;11067;48.788;9.208;2022-07-22T07:53:17;24.00;99.90
21811;DHT22;11067;48.788;9.208;2022-07-22T07:55:43;24.20;99.90
21811;DHT22;11067;48.788;9.208;2022-07-22T07:58:08;24.50;99.90
21811;DHT22;11067;48.788;9.208;2022-07-22T08:00:35;24.10;99.90
21811;DHT22;11067;48.788;9.208;2022-07-22T08:03:02;24.40;99.90
21811;DHT22;11067;48.788;9.208;2022-07-22T08:05:28;24.40;99.90
21811;DHT22;11067;48.788;9.208;2022-07-22T08:07:53;24.60;99.90
21811;DHT22;11067;48.788;9.208;2022-07-22T08:10:20;24.30;99.90
21811;DHT22;11067;48.788;9.208;2022-07-22T08:12:46;24.50;99.90
21811;DHT22;11067;48.788;9.208;2022-07-22T08:15:12;24.60;99.90
21811;DHT22;11067;48.788;9.208;2022-07-22T08:17:38;24.20;99.90
21811;DHT22;11067;48.788;9.208;2022-07-22T08:20:04;24.30;99.90
21811;DHT22;11067;48.788;9.208;2022-07-22T08:22:30;24.80;99.90
21811;DHT22;11067;48.788;9.208;2022-07-22T08:24:56;24.90;99.90
21811;DHT22;11067;48.788;9.208;2022-07-22T08:27:21;25.10;99.90
21811;DHT22;11067;48.788;9.208;2022-07-22T08:29:47;25.20;99.90
21811;DHT22;11067;48.788;9.208;2022-07-22T08:32:13;24.90;99.90
21811;DHT22;11067;48.788;9.208;2022-07-22T08:34:38;25.10;99.90
21811;DHT22;11067;48.788;9.208;2022-07-22T08:37:04;25.20;99.90
21811;DHT22;11067;48.788;9.208;2022-07-22T08:39:30;25.20;99.90
21811;DHT22;11067;48.788;9.208;2022-07-22T08:41:56;25.30;99.90
21811;DHT22;11067;48.788;9.208;2022-07-22T08:44:22;25.60;99.90
21811;DHT22;11067;48.788;9.208;2022-07-22T08:46:47;25.80;99.90
21811;DHT22;11067;48.788;9.208;2022-07-22T08:49:14;25.60;99.90
21811;DHT22;11067;48.788;9.208;2022-07-22T08:51:40;25.60;99.90
21811;DHT22;11067;48.788;9.208;2022-07-22T08:54:06;25.50;99.90
21811;DHT22;11067;48.788;9.208;2022-07-22T08:56:32;25.50;99.90
21811;DHT22;11067;48.788;9.208;2022-07-22T08:58:58;25.70;99.90
21811;DHT22;11067;48.788;9.208;2022-07-22T09:01:23;26.10;99.90
21811;DHT22;11067;48.788;9.208;2022-07-22T09:03:50;26.30;99.90
21811;DHT22;11067;48.788;9.208;2022-07-22T09:06:18;26.10;99.90
21811;DHT22;11067;48.788;9.208;2022-07-22T09:08:57;26.00;99.90
21811;DHT22;11067;48.788;9.208;2022-07-22T09:11:25;26.40;99.90
21811;DHT22;11067;48.788;9.208;2022-07-22T09:13:52;26.50;99.90
21811;DHT22;11067;48.788;9.208;2022-07-22T09:16:45;26.40;99.90
21811;DHT22;11067;48.788;9.208;2022-07-22T09:19:12;26.40;99.90
21811;DHT22;11067;48.788;9.208;2022-07-22T09:21:43;26.30;99.90
21811;DHT22;11067;48.788;9.208;2022-07-22T09:24:28;26.10;99.90
21811;DHT22;11067;48.788;9.208;2022-07-22T09:26:55;26.80;99.90
21811;DHT22;11067;48.788;9.208;2022-07-22T09:29:20;27.00;99.90
21811;DHT22;11067;48.788;9.208;2022-07-22T09:31:50;26.20;99.90
21811;DHT22;11067;48.788;9.208;2022-07-22T09:34:30;26.20;99.90
21811;DHT22;11067;48.788;9.208;2022-07-22T09:36:59;26.20;99.90
21811;DHT22;11067;48.788;9.208;2022-07-22T09:39:30;26.10;99.90
21811;DHT22;11067;48.788;9.208;2022-07-22T09:42:00;26.20;99.90
21811;DHT22;11067;48.788;9.208;2022-07-22T09:44:26;26.10;99.90
21811;DHT22;11067;48.788;9.208;2022-07-22T09:46:52;26.20;99.90
21811;DHT22;11067;48.788;9.208;2022-07-22T09:49:38;26.40;99.90
21811;DHT22;11067;48.788;9.208;2022-07-22T09:52:06;26.90;99.90
21811;DHT22;11067;48.788;9.208;2022-07-22T09:54:32;27.30;99.90
21811;DHT22;11067;48.788;9.208;2022-07-22T09:56:58;26.60;99.90
21811;DHT22;11067;48.788;9.208;2022-07-22T09:59:25;27.00;99.90
21811;DHT22;11067;48.788;9.208;2022-07-22T10:01:54;27.00;99.90
21811;DHT22;11067;48.788;9.208;2022-07-22T10:04:20;27.60;99.90
21811;DHT22;11067;48.788;9.208;2022-07-22T10:06:47;28.00;99.90
21811;DHT22;11067;48.788;9.208;2022-07-22T10:09:14;27.90;99.90
21811;DHT22;11067;48.788;9.208;2022-07-22T10:11:42;27.90;99.90
21811;DHT22;11067;48.788;9.208;2022-07-22T10:14:16;27.70;99.90
21811;DHT22;11067;48.788;9.208;2022-07-22T10:16:43;28.40;99.90
21811;DHT22;11067;48.788;9.208;2022-07-22T10:19:10;28.20;99.90
21811;DHT22;11067;48.788;9.208;2022-07-22T10:21:35;28.10;99.90
21811;DHT22;11067;48.788;9.208;2022-07-22T10:24:15;28.00;99.90
21811;DHT22;11067;48.788;9.208;2022-07-22T10:26:52;27.90;99.90
21811;DHT22;11067;48.788;9.208;2022-07-22T10:29:27;27.30;99.90
21811;DHT22;11067;48.788;9.208;2022-07-22T10:32:22;27.20;99.90
21811;DHT22;11067;48.788;9.208;2022-07-22T10:40:22;27.70;99.90
21811;DHT22;11067;48.788;9.208;2022-07-22T10:45:47;28.30;99.90
21811;DHT22;11067;48.788;9.208;2022-07-22T10:48:16;28.30;99.90
21811;DHT22;11067;48.788;9.208;2022-07-22T10:50:44;28.20;99.90
21811;DHT22;11067;48.788;9.208;2022-07-22T11:01:03;28.40;99.90
21811;DHT22;11067;48.788;9.208;2022-07-22T11:03:30;28.50;99.90
21811;DHT22;11067;48.788;9.208;2022-07-22T11:05:57;28.80;99.90
21811;DHT22;11067;48.788;9.208;2022-07-22T11:08:37;29.00;99.90
21811;DHT22;11067;48.788;9.208;2022-07-22T11:11:03;29.00;99.90
21811;DHT22;11067;48.788;9.208;2022-07-22T11:13:33;28.80;99.90
21811;DHT22;11067;48.788;9.208;2022-07-22T11:16:17;28.70;99.90
21811;DHT22;11067;48.788;9.208;2022-07-22T11:18:45;29.10;99.90
21811;DHT22;11067;48.788;9.208;2022-07-22T11:21:10;29.20;99.90
21811;DHT22;11067;48.788;9.208;2022-07-22T11:23:40;29.10;99.90
21811;DHT22;11067;48.788;9.208;2022-07-22T11:26:07;29.20;99.90
21811;DHT22;11067;48.788;9.208;2022-07-22T11:28:42;29.90;99.90
21811;DHT22;11067;48.788;9.208;2022-07-22T11:31:14;29.70;99.90
21811;DHT22;11067;48.788;9.208;2022-07-22T11:33:40;29.50;99.90
21811;DHT22;11067;48.788;9.208;2022-07-22T11:36:07;29.10;99.90
21811;DHT22;11067;48.788;9.208;2022-07-22T11:38:49;29.20;99.90
21811;DHT22;11067;48.788;9.208;2022-07-22T11:41:17;29.10;99.90
21811;DHT22;11067;48.788;9.208;2022-07-22T11:43:47;29.10;99.90
21811;DHT22;11067;48.788;9.208;2022-07-22T11:46:15;29.20;99.90
21811;DHT22;11067;48.788;9.208;2022-07-22T11:48:41;29.30;99.90
21811;DHT22;11067;48.788;9.208;2022-07-22T11:51:09;29.80;99.90
21811;DHT22;11067;48.788;9.208;2022-07-22T11:53:41;29.70;99.90
21811;DHT22;11067;48.788;9.208;2022-07-22T11:56:08;29.50;99.90
21811;DHT22;11067;48.788;9.208;2022-07-22T11:58:39;29.80;99.90
21811;DHT22;11067;48.788;9.208;2022-07-22T12:01:06;29.70;99.90
21811;DHT22;11067;48.788;9.208;2022-07-22T12:03:34;29.80;99.90
21811;DHT22;11067;48.788;9.208;2022-07-22T12:06:00;29.90;99.90
21811;DHT22;11067;48.788;9.208;2022-07-22T12:08:27;30.10;99.90
21811;DHT22;11067;48.788;9.208;2022-07-22T12:10:54;30.50;99.90
21811;DHT22;11067;48.788;9.208;2022-07-22T12:13:20;30.60;99.90
21811;DHT22;11067;48.788;9.208;2022-07-22T12:15:45;30.90;99.90
21811;DHT22;11067;48.788;9.208;2022-07-22T12:18:18;30.50;99.90
21811;DHT22;11067;48.788;9.208;2022-07-22T12:20:46;30.70;99.90
21811;DHT22;11067;48.788;9.208;2022-07-22T12:23:12;31.10;99.90
21811;DHT22;11067;48.788;9.208;2022-07-22T12:25:52;30.90;99.90
21811;DHT22;11067;48.788;9.208;2022-07-22T12:28:18;30.70;99.90
21811;DHT22;11067;48.788;9.208;2022-07-22T12:30:43;30.70;99.90
21811;DHT22;11067;48.788;9.208;2022-07-22T12:33:13;30.60;99.90
21811;DHT22;11067;48.788;9.208;2022-07-22T12:35:39;30.50;99.90
21811;DHT22;11067;48.788;9.208;2022-07-22T12:38:07;30.60;99.90
21811;DHT22;11067;48.788;9.208;2022-07-22T12:40:33;30.60;99.90
21811;DHT22;11067;48.788;9.208;2022-07-22T12:43:02;30.40;99.90
21811;DHT22;11067;48.788;9.208;2022-07-22T12:45:30;30.40;99.90
21811;DHT22;11067;48.788;9.208;2022-07-22T12:50:56;30.70;99.90
21811;DHT22;11067;48.788;9.208;2022-07-22T12:53:22;30.80;99.90
21811;DHT22;11067;48.788;9.208;2022-07-22T12:55:54;30.90;99.90
21811;DHT22;11067;48.788;9.208;2022-07-22T12:58:25;30.70;99.90
21811;DHT22;11067;48.788;9.208;2022-07-22T13:00:54;30.50;99.90
21811;DHT22;11067;48.788;9.208;2022-07-22T13:03:21;30.70;99.90
21811;DHT22;11067;48.788;9.208;2022-07-22T13:05:58;30.90;99.90
21811;DHT22;11067;48.788;9.208;2022-07-22T13:08:24;31.10;99.90
21811;DHT22;11067;48.788;9.208;2022-07-22T13:10:51;30.90;99.90
21811;DHT22;11067;48.788;9.208;2022-07-22T13:13:17;30.80;99.90
21811;DHT22;11067;48.788;9.208;2022-07-22T13:15:42;31.10;99.90
21811;DHT22;11067;48.788;9.208;2022-07-22T13:18:08;31.20;99.90
21811;DHT22;11067;48.788;9.208;2022-07-22T13:20:33;31.30;99.90
21811;DHT22;11067;48.788;9.208;2022-07-22T13:22:59;31.50;99.90
21811;DHT22;11067;48.788;9.208;2022-07-22T13:25:25;31.20;99.90
21811;DHT22;11067;48.788;9.208;2022-07-22T13:27:54;31.60;99.90
21811;DHT22;11067;48.788;9.208;2022-07-22T13:30:21;31.50;99.90
21811;DHT22;11067;48.788;9.208;2022-07-22T13:32:46;31.60;99.90
21811;DHT22;11067;48.788;9.208;2022-07-22T13:35:12;31.60;99.90
21811;DHT22;11067;48.788;9.208;2022-07-22T13:37:37;31.50;99.90
21811;DHT22;11067;48.788;9.208;2022-07-22T13:40:04;31.80;99.90
21811;DHT22;11067;48.788;9.208;2022-07-22T13:42:29;32.00;99.90
21811;DHT22;11067;48.788;9.208;2022-07-22T13:44:55;31.90;99.90
21811;DHT22;11067;48.788;9.208;2022-07-22T13:47:21;31.90;99.90
21811;DHT22;11067;48.788;9.208;2022-07-22T13:49:47;31.70;99.90
21811;DHT22;11067;48.788;9.208;2022-07-22T13:52:14;31.80;99.90
21811;DHT22;11067;48.788;9.208;2022-07-22T13:54:40;31.80;99.90
21811;DHT22;11067;48.788;9.208;2022-07-22T13:57:06;31.50;99.90
21811;DHT22;11067;48.788;9.208;2022-07-22T13:59:32;31.30;99.90
21811;DHT22;11067;48.788;9.208;2022-07-22T14:01:59;31.60;99.90
21811;DHT22;11067;48.788;9.208;2022-07-22T14:04:25;31.50;99.90
21811;DHT22;11067;48.788;9.208;2022-07-22T14:06:51;31.70;99.90
21811;DHT22;11067;48.788;9.208;2022-07-22T14:09:16;31.60;99.90
21811;DHT22;11067;48.788;9.208;2022-07-22T14:11:42;31.40;99.90
21811;DHT22;11067;48.788;9.208;2022-07-22T14:14:07;31.40;99.90
21811;DHT22;11067;48.788;9.208;2022-07-22T14:16:34;31.30;99.90
21811;DHT22;11067;48.788;9.208;2022-07-22T14:19:14;31.40;99.90
21811;DHT22;11067;48.788;9.208;2022-07-22T14:21:45;31.50;99.90
21811;DHT22;11067;48.788;9.208;2022-07-22T14:24:10;31.30;99.90
21811;DHT22;11067;48.788;9.208;2022-07-22T14:26:37;31.50;99.90
21811;DHT22;11067;48.788;9.208;2022-07-22T14:29:03;31.50;99.90
21811;DHT22;11067;48.788;9.208;2022-07-22T14:31:30;31.40;99.90
21811;DHT22;11067;48.788;9.208;2022-07-22T14:33:56;31.70;99.90
21811;DHT22;11067;48.788;9.208;2022-07-22T14:36:21;31.70;99.90
21811;DHT22;11067;48.788;9.208;2022-07-22T14:38:47;32.00;99.90
21811;DHT22;11067;48.788;9.208;2022-07-22T14:41:15;32.00;99.90
21811;DHT22;11067;48.788;9.208;2022-07-22T14:43:41;31.90;99.90
21811;DHT22;11067;48.788;9.208;2022-07-22T14:46:06;31.90;99.90
21811;DHT22;11067;48.788;9.208;2022-07-22T14:48:36;32.20;99.90
21811;DHT22;11067;48.788;9.208;2022-07-22T14:51:01;32.10;99.90
21811;DHT22;11067;48.788;9.208;2022-07-22T14:53:27;32.20;99.90
21811;DHT22;11067;48.788;9.208;2022-07-22T14:55:53;32.00;99.90
21811;DHT22;11067;48.788;9.208;2022-07-22T14:58:18;32.10;99.90
21811;DHT22;11067;48.788;9.208;2022-07-22T15:00:44;32.10;99.90
21811;DHT22;11067;48.788;9.208;2022-07-22T15:03:10;32.20;99.90
21811;DHT22;11067;48.788;9.208;2022-07-22T15:05:35;32.50;99.90
21811;DHT22;11067;48.788;9.208;2022-07-22T15:08:01;32.60;99.90
21811;DHT22;11067;48.788;9.208;2022-07-22T15:10:26;32.40;99.90
21811;DHT22;11067;48.788;9.208;2022-07-22T15:12:52;32.40;99.90
21811;DHT22;11067;48.788;9.208;2022-07-22T15:15:17;32.10;99.90
21811;DHT22;11067;48.788;9.208;2022-07-22T15:17:43;32.10;99.90
21811;DHT22;11067;48.788;9.208;2022-07-22T15:20:09;32.10;99.90
21811;DHT22;11067;48.788;9.208;2022-07-22T15:22:35;32.20;99.90
21811;DHT22;11067;48.788;9.208;2022-07-22T15:25:01;32.20;99.90
21811;DHT22;11067;48.788;9.208;2022-07-22T15:27:26;32.20;99.90
21811;DHT22;11067;48.788;9.208;2022-07-22T15:29:52;32.00;99.90
21811;DHT22;11067;48.788;9.208;2022-07-22T15:32:18;31.90;99.90
21811;DHT22;11067;48.788;9.208;2022-07-22T15:34:44;32.10;99.90
21811;DHT22;11067;48.788;9.208;2022-07-22T15:37:10;32.20;99.90
21811;DHT22;11067;48.788;9.208;2022-07-22T15:39:35;32.10;99.90
21811;DHT22;11067;48.788;9.208;2022-07-22T15:42:01;32.20;99.90
21811;DHT22;11067;48.788;9.208;2022-07-22T15:44:27;32.50;99.90
21811;DHT22;11067;48.788;9.208;2022-07-22T15:46:52;32.40;99.90